ΕΜΥ, Εθνική Μετεωρολογική Υπηρεσία - Δελτία Καιρού, Προγνώσεις

ΑΕΡΟΝΑΥΤΙΛΙΑ

GREEK AIRPORTS CODES

LGPA 210320Z AUTO 35025G37KT //// -RA ////// 08/00 Q1035 RE// RMK 0.0MM=

EUROPEAN AIRPORTS CODES

LFPO 210300Z 04006KT 6000 NSC 01/M00 Q1041 NOSIG=